createdAt,value
2022-08-24T00:00:16.792Z,23.50
2022-08-24T00:02:07.803Z,23.40
2022-08-24T00:04:04.371Z,23.30
2022-08-24T00:05:55.382Z,23.30
2022-08-24T00:07:45.984Z,23.30
2022-08-24T00:09:37.055Z,23.30
2022-08-24T00:11:27.641Z,23.30
2022-08-24T00:13:18.275Z,23.20
2022-08-24T00:15:12.419Z,23.20
2022-08-24T00:17:04.025Z,23.20
2022-08-24T00:18:54.507Z,23.30
2022-08-24T00:20:46.786Z,23.30
2022-08-24T00:22:37.438Z,23.20
2022-08-24T00:24:28.055Z,23.30
2022-08-24T00:26:19.531Z,23.40
2022-08-24T00:28:19.634Z,23.60
2022-08-24T00:30:16.329Z,23.60
2022-08-24T00:32:07.410Z,23.60
2022-08-24T00:33:58.553Z,23.50
2022-08-24T00:35:50.652Z,23.40
2022-08-24T00:37:41.408Z,23.40
2022-08-24T00:39:31.953Z,23.30
2022-08-24T00:41:22.952Z,23.30
2022-08-24T00:43:17.091Z,23.30
2022-08-24T00:45:12.068Z,23.30
2022-08-24T00:47:07.798Z,23.30
2022-08-24T00:49:07.842Z,23.30
2022-08-24T00:51:06.585Z,23.20
2022-08-24T00:53:03.559Z,23.10
2022-08-24T00:54:58.506Z,23.10
2022-08-24T00:56:54.418Z,23.00
2022-08-24T00:58:48.121Z,23.10
2022-08-24T01:00:57.533Z,23.10
2022-08-24T01:02:56.277Z,23.10
2022-08-24T01:04:53.930Z,23.10
2022-08-24T01:06:46.188Z,23.00
2022-08-24T01:08:37.287Z,23.10
2022-08-24T01:10:33.169Z,23.00
2022-08-24T01:12:26.826Z,23.00
2022-08-24T01:14:18.809Z,23.10
2022-08-24T01:16:11.384Z,23.10
2022-08-24T01:18:02.903Z,23.10
2022-08-24T01:19:57.444Z,23.10
2022-08-24T01:22:01.547Z,23.10
2022-08-24T01:23:58.051Z,23.10
2022-08-24T01:25:48.846Z,23.00
2022-08-24T01:27:41.860Z,23.00
2022-08-24T01:29:33.160Z,22.90
2022-08-24T01:31:25.271Z,22.90
2022-08-24T01:33:25.243Z,22.90
2022-08-24T01:35:15.725Z,23.00
2022-08-24T01:37:09.738Z,23.10
2022-08-24T01:39:08.196Z,23.10
2022-08-24T01:41:03.854Z,23.10
2022-08-24T01:42:54.250Z,23.10
2022-08-24T01:44:46.298Z,23.10
2022-08-24T01:46:37.010Z,23.10
2022-08-24T01:48:27.427Z,23.10
2022-08-24T01:50:18.339Z,23.10
2022-08-24T01:52:13.187Z,23.10
2022-08-24T01:54:07.333Z,23.10
2022-08-24T01:55:58.425Z,23.10
2022-08-24T01:57:49.065Z,23.10
2022-08-24T01:59:40.497Z,23.10
2022-08-24T02:01:34.754Z,23.30
2022-08-24T02:03:27.888Z,23.20
2022-08-24T02:05:21.223Z,23.10
2022-08-24T02:07:12.036Z,23.20
2022-08-24T02:09:03.288Z,23.10
2022-08-24T02:10:56.643Z,23.10
2022-08-24T02:12:49.320Z,23.10
2022-08-24T02:14:40.066Z,23.10
2022-08-24T02:16:31.217Z,23.10
2022-08-24T02:18:22.199Z,23.10
2022-08-24T02:20:13.240Z,23.20
2022-08-24T02:22:05.038Z,23.30
2022-08-24T02:23:55.943Z,23.30
2022-08-24T02:25:46.960Z,23.40
2022-08-24T02:27:38.837Z,23.30
2022-08-24T02:29:31.925Z,23.30
2022-08-24T02:31:22.666Z,23.40
2022-08-24T02:33:14.603Z,23.30
2022-08-24T02:35:05.808Z,23.40
2022-08-24T02:36:56.246Z,23.30
2022-08-24T02:38:46.920Z,23.30
2022-08-24T02:40:38.027Z,23.40
2022-08-24T02:42:28.717Z,23.30
2022-08-24T02:44:21.235Z,23.20
2022-08-24T02:46:18.297Z,23.20
2022-08-24T02:48:09.713Z,23.30
2022-08-24T02:50:01.741Z,23.40
2022-08-24T02:51:52.615Z,23.50
2022-08-24T02:53:43.442Z,23.50
2022-08-24T02:55:34.460Z,23.50
2022-08-24T02:57:25.149Z,23.50
2022-08-24T02:59:16.367Z,23.60
2022-08-24T03:01:13.748Z,23.50
2022-08-24T03:03:09.775Z,23.20
2022-08-24T03:05:00.669Z,23.10
2022-08-24T03:06:51.663Z,22.90
2022-08-24T03:08:42.334Z,22.80
2022-08-24T03:10:39.043Z,22.80
2022-08-24T03:12:29.605Z,22.80
2022-08-24T03:14:20.390Z,22.80
2022-08-24T03:16:12.548Z,22.70
2022-08-24T03:18:03.509Z,22.70
2022-08-24T03:19:53.929Z,22.60
2022-08-24T03:21:44.556Z,22.50
2022-08-24T03:23:35.399Z,22.50
2022-08-24T03:25:27.179Z,22.50
2022-08-24T03:27:18.123Z,22.60
2022-08-24T03:29:08.932Z,22.60
2022-08-24T03:31:00.490Z,22.60
2022-08-24T03:32:52.626Z,22.70
2022-08-24T03:34:43.420Z,22.60
2022-08-24T03:36:33.958Z,22.70
2022-08-24T03:38:24.855Z,22.70
2022-08-24T03:40:22.849Z,22.70
2022-08-24T03:42:15.404Z,22.70
2022-08-24T03:44:06.160Z,22.70
2022-08-24T03:45:57.461Z,22.70
2022-08-24T03:47:48.766Z,22.60
2022-08-24T03:49:40.897Z,22.60
2022-08-24T03:51:31.547Z,22.60
2022-08-24T03:53:22.348Z,22.50
2022-08-24T03:55:13.661Z,22.50
2022-08-24T03:57:04.722Z,22.50
2022-08-24T03:58:56.228Z,22.60
2022-08-24T04:00:47.119Z,22.60
2022-08-24T04:02:37.929Z,22.50
2022-08-24T04:04:28.532Z,22.50
2022-08-24T04:06:22.189Z,22.60
2022-08-24T04:08:13.128Z,22.50
2022-08-24T04:10:09.790Z,22.50
2022-08-24T04:12:00.407Z,22.50
2022-08-24T04:13:53.455Z,22.50
2022-08-24T04:15:44.272Z,22.50
2022-08-24T04:17:35.233Z,22.50
2022-08-24T04:19:27.156Z,22.50
2022-08-24T04:21:21.808Z,22.50
2022-08-24T04:23:13.506Z,22.60
2022-08-24T04:25:09.229Z,22.60
2022-08-24T04:27:00.585Z,22.70
2022-08-24T04:28:51.831Z,22.80
2022-08-24T04:30:44.774Z,22.90
2022-08-24T04:32:35.476Z,23.00
2022-08-24T04:34:26.129Z,23.00
2022-08-24T04:36:20.785Z,22.90
2022-08-24T04:38:11.715Z,22.80
2022-08-24T04:40:02.914Z,22.80
2022-08-24T04:41:54.137Z,22.70
2022-08-24T04:43:44.881Z,22.70
2022-08-24T04:45:39.302Z,22.70
2022-08-24T04:47:30.444Z,22.70
2022-08-24T04:49:21.533Z,22.80
2022-08-24T04:51:16.340Z,22.80
2022-08-24T04:53:09.051Z,22.70
2022-08-24T04:55:00.630Z,22.80
2022-08-24T04:56:51.091Z,22.80
2022-08-24T04:58:42.490Z,22.70
2022-08-24T05:00:33.482Z,22.80
2022-08-24T05:02:24.642Z,22.90
2022-08-24T05:04:15.665Z,22.90
2022-08-24T05:06:07.079Z,22.90
2022-08-24T05:07:57.779Z,22.90
2022-08-24T05:09:52.343Z,22.90
2022-08-24T05:11:49.898Z,22.90
2022-08-24T05:13:41.101Z,23.00
2022-08-24T05:15:31.949Z,22.90
2022-08-24T05:17:22.370Z,23.10
2022-08-24T05:19:13.166Z,23.10
2022-08-24T05:21:07.813Z,23.00
2022-08-24T05:23:03.811Z,23.00
2022-08-24T05:24:56.767Z,23.00
2022-08-24T05:26:47.430Z,23.00
2022-08-24T05:28:38.979Z,23.00
2022-08-24T05:30:29.955Z,23.10
2022-08-24T05:32:20.811Z,23.10
2022-08-24T05:34:11.925Z,23.10
2022-08-24T05:36:09.374Z,23.10
2022-08-24T05:38:03.382Z,23.10
2022-08-24T05:39:55.807Z,23.20
2022-08-24T05:41:47.037Z,23.20
2022-08-24T05:43:37.553Z,23.20
2022-08-24T05:45:28.285Z,23.30
2022-08-24T05:47:19.285Z,23.30
2022-08-24T05:49:10.950Z,23.40
2022-08-24T05:51:02.188Z,23.50
2022-08-24T05:52:53.092Z,23.60
2022-08-24T05:54:43.999Z,23.70
2022-08-24T05:56:36.507Z,23.60
2022-08-24T05:58:31.283Z,23.60
2022-08-24T06:00:22.500Z,23.60
2022-08-24T06:02:13.488Z,23.70
2022-08-24T06:04:05.090Z,23.80
2022-08-24T06:05:56.248Z,23.80
2022-08-24T06:07:47.249Z,23.90
2022-08-24T06:09:38.695Z,23.80
2022-08-24T06:11:34.768Z,23.90
2022-08-24T06:13:27.238Z,23.90
2022-08-24T06:15:17.966Z,23.90
2022-08-24T06:17:09.575Z,23.90
2022-08-24T06:19:00.358Z,24.00
2022-08-24T06:20:51.079Z,24.00
2022-08-24T06:22:48.054Z,24.10
2022-08-24T06:24:38.815Z,24.10
2022-08-24T06:26:30.376Z,24.10
2022-08-24T06:28:21.438Z,24.10
2022-08-24T06:30:14.259Z,24.10
2022-08-24T06:32:04.978Z,24.20
2022-08-24T06:33:56.041Z,24.20
2022-08-24T06:35:47.605Z,24.20
2022-08-24T06:37:38.251Z,24.20
2022-08-24T06:39:29.172Z,24.20
2022-08-24T06:41:20.045Z,24.30
2022-08-24T06:43:10.972Z,24.30
2022-08-24T06:45:01.724Z,24.30
2022-08-24T06:46:54.048Z,24.30
2022-08-24T06:48:45.041Z,24.40
2022-08-24T06:50:35.658Z,24.40
2022-08-24T06:52:26.225Z,24.50
2022-08-24T06:54:17.502Z,24.60
2022-08-24T06:56:09.297Z,24.60
2022-08-24T06:58:00.481Z,24.50
2022-08-24T06:59:51.380Z,24.60
2022-08-24T07:01:42.347Z,24.50
2022-08-24T07:03:34.517Z,24.60
2022-08-24T07:05:25.330Z,24.60
2022-08-24T07:07:17.345Z,24.60
2022-08-24T07:09:07.927Z,24.70
2022-08-24T07:10:59.835Z,24.70
2022-08-24T07:12:50.566Z,24.70
2022-08-24T07:14:41.331Z,24.70
2022-08-24T07:16:32.382Z,24.70
2022-08-24T07:18:23.271Z,24.70
2022-08-24T07:20:16.185Z,24.80
2022-08-24T07:22:06.806Z,24.80
2022-08-24T07:24:00.343Z,24.90
2022-08-24T07:25:55.521Z,24.90
2022-08-24T07:27:46.564Z,25.00
2022-08-24T07:29:50.427Z,25.00
2022-08-24T07:31:44.351Z,25.00
2022-08-24T07:33:35.753Z,25.10
2022-08-24T07:35:30.447Z,25.10
2022-08-24T07:37:21.278Z,25.10
2022-08-24T07:39:12.427Z,25.20
2022-08-24T07:41:36.564Z,25.20
2022-08-24T07:43:21.469Z,25.20
2022-08-24T07:45:15.662Z,25.30
2022-08-24T07:47:37.745Z,25.30
2022-08-24T07:49:37.090Z,25.40
2022-08-24T07:51:35.858Z,25.40
2022-08-24T07:53:52.901Z,25.50
2022-08-24T07:55:58.453Z,25.50
2022-08-24T07:58:01.460Z,25.60
2022-08-24T07:59:56.228Z,25.60
2022-08-24T08:01:51.222Z,25.60
2022-08-24T08:03:45.893Z,25.70
2022-08-24T08:05:46.729Z,25.70
2022-08-24T08:07:40.629Z,25.70
2022-08-24T08:09:32.665Z,25.80
2022-08-24T08:11:26.415Z,25.80
2022-08-24T08:13:19.052Z,25.90
2022-08-24T08:15:15.396Z,25.90
2022-08-24T08:17:12.598Z,26.00
2022-08-24T08:19:28.359Z,26.00
2022-08-24T08:21:28.155Z,26.10
2022-08-24T08:23:28.898Z,26.10
2022-08-24T08:25:29.289Z,26.10
2022-08-24T08:27:21.204Z,26.10
2022-08-24T08:29:14.861Z,26.10
2022-08-24T08:31:06.757Z,26.20
2022-08-24T08:33:03.674Z,26.20
2022-08-24T08:35:00.087Z,26.20
2022-08-24T08:37:02.113Z,26.30
2022-08-24T08:39:00.964Z,26.30
2022-08-24T08:41:24.596Z,26.40
2022-08-24T08:43:45.716Z,26.40
2022-08-24T08:46:02.411Z,26.40
2022-08-24T08:48:30.598Z,26.50
2022-08-24T08:50:31.367Z,26.50
2022-08-24T08:53:16.969Z,26.60
2022-08-24T08:55:29.434Z,26.60
2022-08-24T08:57:58.919Z,26.70
2022-08-24T09:00:07.821Z,26.80
2022-08-24T09:02:23.316Z,26.80
2022-08-24T09:05:22.662Z,26.90
2022-08-24T09:07:41.050Z,27.00
2022-08-24T09:10:08.363Z,27.00
2022-08-24T09:12:15.837Z,27.10
2022-08-24T09:14:50.405Z,27.10
2022-08-24T09:17:12.755Z,27.10
2022-08-24T09:19:31.672Z,27.20
2022-08-24T09:21:58.184Z,27.20
2022-08-24T09:24:00.162Z,27.30
2022-08-24T09:26:02.425Z,27.30
2022-08-24T09:28:21.870Z,27.30
2022-08-24T09:30:20.833Z,27.40
2022-08-24T09:32:36.888Z,27.40
2022-08-24T09:34:49.470Z,27.40
2022-08-24T09:36:54.525Z,27.40
2022-08-24T09:38:59.319Z,27.40
2022-08-24T09:41:38.578Z,27.50
2022-08-24T09:44:37.181Z,27.50
2022-08-24T09:47:17.183Z,27.60
2022-08-24T09:50:05.676Z,27.60
2022-08-24T09:52:51.623Z,27.70
2022-08-24T09:55:25.699Z,27.80
2022-08-24T09:57:50.284Z,27.90
2022-08-24T10:00:02.554Z,28.00
2022-08-24T10:02:07.667Z,28.10
2022-08-24T10:04:20.812Z,28.10
2022-08-24T10:06:32.007Z,28.20
2022-08-24T10:08:39.784Z,28.20
2022-08-24T10:10:44.402Z,28.30
2022-08-24T10:13:00.972Z,28.30
2022-08-24T10:15:01.861Z,28.40
2022-08-24T10:17:03.212Z,28.40
2022-08-24T10:19:08.397Z,28.40
2022-08-24T10:21:13.674Z,28.40
2022-08-24T10:23:28.456Z,28.40
2022-08-24T10:25:32.736Z,28.40
2022-08-24T10:27:49.782Z,28.40
2022-08-24T10:30:15.529Z,28.40
2022-08-24T10:32:31.717Z,28.40
2022-08-24T10:34:38.172Z,28.40
2022-08-24T10:36:49.174Z,28.40
2022-08-24T10:38:49.742Z,28.30
2022-08-24T10:40:56.169Z,28.30
2022-08-24T10:43:18.371Z,28.30
2022-08-24T10:46:02.054Z,28.40
2022-08-24T10:48:16.531Z,28.30
2022-08-24T10:50:31.322Z,28.40
2022-08-24T10:53:03.924Z,28.40
2022-08-24T10:54:55.180Z,28.40
2022-08-24T10:56:57.538Z,28.50
2022-08-24T10:58:58.090Z,28.50
2022-08-24T11:00:50.877Z,28.50
2022-08-24T11:02:44.655Z,28.50
2022-08-24T11:04:36.467Z,28.60
2022-08-24T11:06:33.632Z,28.80
2022-08-24T11:08:27.067Z,28.90
2022-08-24T11:10:27.774Z,29.00
2022-08-24T11:12:26.314Z,29.10
2022-08-24T11:14:26.200Z,29.10
2022-08-24T11:16:26.220Z,29.00
2022-08-24T11:18:17.624Z,29.00
2022-08-24T11:20:27.597Z,29.10
2022-08-24T11:22:34.538Z,29.20
2022-08-24T11:24:39.551Z,29.30
2022-08-24T11:26:30.944Z,29.30
2022-08-24T11:28:30.004Z,29.40
2022-08-24T11:30:27.509Z,29.40
2022-08-24T11:32:32.380Z,29.60
2022-08-24T11:34:36.767Z,29.70
2022-08-24T11:36:32.635Z,29.90
2022-08-24T11:38:26.139Z,30.20
2022-08-24T11:40:19.837Z,30.40
2022-08-24T11:42:21.439Z,30.60
2022-08-24T11:44:41.384Z,30.70
2022-08-24T11:46:41.592Z,30.90
2022-08-24T11:48:53.605Z,31.10
2022-08-24T11:50:55.559Z,31.20
2022-08-24T11:53:00.520Z,31.40
2022-08-24T11:54:59.938Z,31.40
2022-08-24T11:57:08.409Z,31.40
2022-08-24T11:59:06.366Z,31.40
2022-08-24T12:01:12.151Z,31.20
2022-08-24T12:03:26.951Z,31.20
2022-08-24T12:05:28.286Z,31.20
2022-08-24T12:07:34.315Z,31.20
2022-08-24T12:09:44.177Z,31.00
2022-08-24T12:11:44.740Z,30.90
2022-08-24T12:13:52.832Z,30.80
2022-08-24T12:15:52.258Z,30.80
2022-08-24T12:17:51.506Z,30.70
2022-08-24T12:19:52.691Z,30.90
2022-08-24T12:21:51.213Z,31.00
2022-08-24T12:23:47.573Z,31.00
2022-08-24T12:25:38.823Z,31.00
2022-08-24T12:27:33.851Z,31.00
2022-08-24T12:29:30.596Z,31.00
2022-08-24T12:31:29.530Z,31.00
2022-08-24T12:33:27.766Z,30.80
2022-08-24T12:35:26.759Z,30.70
2022-08-24T12:37:26.535Z,30.60
2022-08-24T12:39:25.871Z,30.60
2022-08-24T12:41:24.272Z,30.60
2022-08-24T12:43:24.629Z,30.50
2022-08-24T12:45:18.887Z,30.60
2022-08-24T12:47:10.053Z,30.50
2022-08-24T12:49:13.240Z,30.50
2022-08-24T12:51:19.283Z,30.50
2022-08-24T12:53:42.421Z,30.50
2022-08-24T12:56:03.002Z,30.60
2022-08-24T12:58:31.088Z,30.60
2022-08-24T13:00:22.503Z,30.50
2022-08-24T13:02:32.760Z,30.50
2022-08-24T13:04:36.757Z,30.60
2022-08-24T13:06:39.375Z,30.60
2022-08-24T13:08:38.049Z,30.50
2022-08-24T13:10:41.579Z,30.40
2022-08-24T13:13:09.238Z,30.20
2022-08-24T13:15:47.429Z,30.20
2022-08-24T13:17:42.441Z,30.10
2022-08-24T13:19:38.699Z,30.10
2022-08-24T13:21:45.056Z,30.20
2022-08-24T13:23:35.595Z,30.20
2022-08-24T13:25:54.804Z,30.30
2022-08-24T13:28:04.250Z,30.30
2022-08-24T13:30:07.216Z,30.40
2022-08-24T13:31:58.556Z,30.40
2022-08-24T13:33:54.780Z,30.30
2022-08-24T13:36:08.768Z,30.30
2022-08-24T13:38:42.387Z,30.30
2022-08-24T13:40:47.363Z,30.10
2022-08-24T13:42:58.783Z,30.30
2022-08-24T13:45:14.638Z,30.30
2022-08-24T13:47:15.152Z,30.10
2022-08-24T13:49:28.965Z,30.00
2022-08-24T13:51:42.250Z,30.00
2022-08-24T13:53:54.925Z,30.00
2022-08-24T13:55:50.215Z,30.10
2022-08-24T13:57:45.800Z,30.10
2022-08-24T13:59:58.224Z,30.10
2022-08-24T14:02:07.482Z,30.10
2022-08-24T14:04:43.052Z,30.10
2022-08-24T14:06:40.346Z,30.10
2022-08-24T14:08:49.775Z,30.30
2022-08-24T14:10:55.136Z,30.40
2022-08-24T14:13:03.989Z,30.50
2022-08-24T14:15:10.785Z,30.70
2022-08-24T14:17:19.705Z,30.80
2022-08-24T14:19:19.860Z,30.70
2022-08-24T14:21:18.157Z,30.60
2022-08-24T14:23:27.878Z,30.40
2022-08-24T14:25:23.526Z,30.40
2022-08-24T14:27:39.926Z,30.60
2022-08-24T14:29:46.811Z,30.70
2022-08-24T14:31:38.286Z,30.60
2022-08-24T14:33:35.592Z,30.40
2022-08-24T14:35:34.203Z,30.50
2022-08-24T14:37:40.418Z,30.40
2022-08-24T14:39:41.241Z,30.50
2022-08-24T14:41:52.517Z,30.50
2022-08-24T14:44:19.134Z,30.50
2022-08-24T14:46:23.526Z,30.50
2022-08-24T14:48:24.653Z,30.50
2022-08-24T14:50:23.864Z,30.60
2022-08-24T14:52:39.284Z,30.50
2022-08-24T14:54:45.439Z,30.40
2022-08-24T14:56:52.877Z,30.40
2022-08-24T14:58:51.521Z,30.40
2022-08-24T15:01:48.901Z,30.30
2022-08-24T15:04:02.857Z,30.40
2022-08-24T15:06:26.178Z,30.60
2022-08-24T15:08:33.347Z,30.80
2022-08-24T15:10:28.007Z,30.90
2022-08-24T15:12:37.177Z,31.00
2022-08-24T15:14:39.868Z,31.00
2022-08-24T15:16:53.596Z,31.20
2022-08-24T15:19:03.345Z,31.50
2022-08-24T15:21:10.742Z,31.70
2022-08-24T15:23:09.674Z,31.70
2022-08-24T15:25:10.258Z,31.70
2022-08-24T15:27:14.659Z,31.70
2022-08-24T15:29:13.991Z,31.80
2022-08-24T15:31:08.826Z,31.70
2022-08-24T15:33:08.942Z,31.70
2022-08-24T15:34:59.460Z,32.00
2022-08-24T15:37:00.130Z,32.30
2022-08-24T15:38:51.456Z,32.60
2022-08-24T15:40:45.221Z,32.90
2022-08-24T15:42:37.541Z,33.10
2022-08-24T15:44:31.448Z,33.00
2022-08-24T15:46:26.716Z,33.30
2022-08-24T15:48:23.098Z,33.50
2022-08-24T15:50:24.596Z,33.50
2022-08-24T15:52:43.211Z,33.40
2022-08-24T15:54:38.171Z,33.40
2022-08-24T15:56:47.690Z,33.30
2022-08-24T15:58:39.506Z,33.10
2022-08-24T16:00:40.437Z,33.20
2022-08-24T16:02:33.596Z,33.30
2022-08-24T16:04:43.140Z,33.40
2022-08-24T16:06:41.758Z,33.30
2022-08-24T16:09:00.299Z,33.10
2022-08-24T16:10:54.900Z,33.00
2022-08-24T16:12:47.554Z,33.10
2022-08-24T16:14:41.392Z,33.10
2022-08-24T16:16:42.741Z,33.00
2022-08-24T16:18:52.788Z,32.80
2022-08-24T16:20:44.650Z,32.70
2022-08-24T16:22:39.277Z,32.80
2022-08-24T16:24:35.263Z,32.80
2022-08-24T16:26:29.070Z,32.80
2022-08-24T16:28:37.347Z,32.70
2022-08-24T16:30:44.200Z,32.70
2022-08-24T16:32:54.595Z,32.70
2022-08-24T16:34:47.590Z,32.60
2022-08-24T16:36:38.123Z,32.50
2022-08-24T16:38:30.729Z,32.50
2022-08-24T16:40:23.145Z,32.40
2022-08-24T16:42:21.887Z,32.20
2022-08-24T16:44:13.853Z,32.20
2022-08-24T16:46:10.539Z,32.00
2022-08-24T16:48:01.464Z,31.90
2022-08-24T16:49:52.392Z,31.70
2022-08-24T16:51:45.514Z,31.70
2022-08-24T16:53:36.739Z,31.50
2022-08-24T16:55:27.311Z,31.40
2022-08-24T16:57:21.424Z,31.40
2022-08-24T16:59:19.880Z,31.40
2022-08-24T17:01:10.763Z,31.30
2022-08-24T17:03:01.531Z,31.20
2022-08-24T17:04:52.699Z,31.20
2022-08-24T17:06:44.112Z,31.10
2022-08-24T17:08:34.548Z,31.00
2022-08-24T17:10:26.017Z,31.00
2022-08-24T17:12:17.171Z,30.90
2022-08-24T17:14:08.663Z,30.90
2022-08-24T17:16:02.336Z,30.80
2022-08-24T17:17:58.342Z,30.80
2022-08-24T17:19:50.560Z,30.70
2022-08-24T17:21:41.808Z,30.60
2022-08-24T17:23:33.254Z,30.50
2022-08-24T17:25:23.896Z,30.50
2022-08-24T17:27:15.358Z,30.40
2022-08-24T17:29:09.684Z,30.40
2022-08-24T17:31:03.310Z,30.30
2022-08-24T17:32:54.141Z,30.20
2022-08-24T17:34:44.717Z,30.20
2022-08-24T17:36:35.954Z,30.10
2022-08-24T17:38:26.790Z,30.10
2022-08-24T17:40:23.632Z,30.10
2022-08-24T17:42:39.993Z,30.00
2022-08-24T17:44:28.751Z,30.00
2022-08-24T17:46:21.744Z,30.00
2022-08-24T17:48:20.621Z,30.00
2022-08-24T17:50:13.287Z,29.80
2022-08-24T17:52:04.312Z,29.80
2022-08-24T17:53:54.973Z,29.80
2022-08-24T17:55:46.162Z,29.60
2022-08-24T17:57:37.641Z,29.60
2022-08-24T17:59:31.434Z,29.50
2022-08-24T18:01:23.561Z,29.40
2022-08-24T18:03:16.614Z,29.50
2022-08-24T18:05:09.325Z,29.40
2022-08-24T18:07:04.575Z,29.50
2022-08-24T18:08:55.612Z,29.50
2022-08-24T18:10:45.993Z,29.50
2022-08-24T18:12:38.655Z,29.50
2022-08-24T18:14:30.803Z,29.50
2022-08-24T18:16:25.110Z,29.60
2022-08-24T18:18:16.054Z,29.50
2022-08-24T18:20:11.329Z,29.50
2022-08-24T18:22:03.059Z,29.60
2022-08-24T18:23:53.848Z,29.50
2022-08-24T18:25:49.293Z,29.50
2022-08-24T18:27:40.125Z,29.50
2022-08-24T18:29:31.367Z,29.50
2022-08-24T18:31:26.570Z,29.40
2022-08-24T18:33:17.973Z,29.40
2022-08-24T18:35:08.873Z,29.40
2022-08-24T18:36:59.696Z,29.40
2022-08-24T18:38:51.072Z,29.40
2022-08-24T18:40:46.785Z,29.40
2022-08-24T18:42:44.610Z,29.30
2022-08-24T18:44:36.609Z,29.20
2022-08-24T18:46:30.854Z,29.20
2022-08-24T18:48:22.185Z,29.20
2022-08-24T18:50:12.785Z,29.10
2022-08-24T18:52:08.799Z,29.10
2022-08-24T18:54:03.350Z,29.10
2022-08-24T18:55:54.461Z,29.10
2022-08-24T18:57:45.450Z,29.10
2022-08-24T18:59:39.341Z,29.10
2022-08-24T19:01:34.427Z,29.00
2022-08-24T19:03:26.687Z,28.90
2022-08-24T19:05:22.322Z,28.80
2022-08-24T19:07:13.480Z,28.80
2022-08-24T19:09:04.152Z,28.70
2022-08-24T19:10:55.243Z,28.70
2022-08-24T19:12:54.640Z,28.60
2022-08-24T19:14:46.636Z,28.60
2022-08-24T19:16:38.744Z,28.60
2022-08-24T19:18:29.572Z,28.50
2022-08-24T19:20:20.507Z,28.40
2022-08-24T19:22:11.290Z,28.40
2022-08-24T19:24:04.444Z,28.40
2022-08-24T19:25:56.630Z,28.30
2022-08-24T19:27:51.782Z,28.30
2022-08-24T19:29:55.676Z,28.30
2022-08-24T19:31:48.115Z,28.20
2022-08-24T19:33:43.530Z,28.20
2022-08-24T19:35:36.571Z,28.10
2022-08-24T19:37:27.135Z,28.10
2022-08-24T19:39:18.524Z,28.20
2022-08-24T19:41:17.565Z,28.10
2022-08-24T19:43:09.419Z,28.00
2022-08-24T19:45:00.941Z,27.90
2022-08-24T19:46:53.156Z,28.00
2022-08-24T19:48:43.730Z,27.90
2022-08-24T19:50:35.996Z,27.90
2022-08-24T19:52:28.868Z,27.90
2022-08-24T19:54:19.885Z,27.80
2022-08-24T19:56:10.996Z,27.80
2022-08-24T19:58:08.291Z,27.80
2022-08-24T20:00:04.014Z,27.70
2022-08-24T20:01:56.256Z,27.70
2022-08-24T20:03:47.932Z,27.70
2022-08-24T20:05:39.253Z,27.70
2022-08-24T20:07:30.562Z,27.60
2022-08-24T20:09:23.603Z,27.60
2022-08-24T20:11:14.778Z,27.60
2022-08-24T20:13:05.788Z,27.60
2022-08-24T20:14:56.941Z,27.60
2022-08-24T20:16:47.909Z,27.50
2022-08-24T20:18:40.434Z,27.50
2022-08-24T20:20:32.119Z,27.50
2022-08-24T20:22:23.600Z,27.40
2022-08-24T20:24:15.370Z,27.40
2022-08-24T20:26:09.030Z,27.30
2022-08-24T20:28:27.818Z,27.30
2022-08-24T20:30:18.139Z,27.30
2022-08-24T20:32:09.131Z,27.30
2022-08-24T20:34:01.188Z,27.30
2022-08-24T20:35:52.303Z,27.20
2022-08-24T20:37:44.497Z,27.10
2022-08-24T20:39:36.076Z,27.00
2022-08-24T20:41:27.451Z,27.00
2022-08-24T20:43:18.613Z,27.00
2022-08-24T20:45:12.644Z,27.00
2022-08-24T20:47:06.963Z,27.00
2022-08-24T20:48:59.914Z,27.00
2022-08-24T20:50:51.230Z,26.90
2022-08-24T20:52:42.117Z,26.90
2022-08-24T20:54:35.541Z,26.80
2022-08-24T20:56:36.165Z,26.80
2022-08-24T20:58:26.864Z,26.80
2022-08-24T21:00:19.726Z,26.80
2022-08-24T21:02:11.382Z,26.80
2022-08-24T21:04:05.628Z,26.80
2022-08-24T21:05:56.710Z,26.80
2022-08-24T21:07:47.986Z,26.70
2022-08-24T21:09:39.436Z,26.70
2022-08-24T21:11:30.160Z,26.70
2022-08-24T21:13:21.237Z,26.70
2022-08-24T21:15:13.149Z,26.70
2022-08-24T21:17:05.324Z,26.60
2022-08-24T21:18:57.950Z,26.60
2022-08-24T21:21:03.437Z,26.60
2022-08-24T21:22:55.499Z,26.60
2022-08-24T21:24:46.326Z,26.60
2022-08-24T21:26:37.899Z,26.60
2022-08-24T21:28:29.332Z,26.60
2022-08-24T21:30:22.730Z,26.50
2022-08-24T21:32:13.575Z,26.50
2022-08-24T21:34:04.904Z,26.50
2022-08-24T21:35:57.137Z,26.40
2022-08-24T21:37:48.105Z,26.40
2022-08-24T21:39:40.095Z,26.40
2022-08-24T21:41:31.169Z,26.40
2022-08-24T21:43:22.667Z,26.40
2022-08-24T21:45:13.738Z,26.30
2022-08-24T21:47:06.388Z,26.40
2022-08-24T21:48:57.297Z,26.40
2022-08-24T21:50:47.926Z,26.40
2022-08-24T21:52:40.177Z,26.40
2022-08-24T21:54:30.824Z,26.30
2022-08-24T21:56:26.239Z,26.30
2022-08-24T21:58:17.528Z,26.40
2022-08-24T22:00:12.921Z,26.30
2022-08-24T22:02:04.557Z,26.40
2022-08-24T22:03:55.988Z,26.40
2022-08-24T22:05:46.710Z,26.40
2022-08-24T22:07:38.738Z,26.30
2022-08-24T22:09:29.588Z,26.30
2022-08-24T22:11:22.678Z,26.30
2022-08-24T22:13:16.507Z,26.30
2022-08-24T22:15:10.929Z,26.30
2022-08-24T22:17:02.008Z,26.30
2022-08-24T22:18:52.728Z,26.20
2022-08-24T22:20:43.533Z,26.20
2022-08-24T22:22:34.623Z,26.30
2022-08-24T22:24:26.519Z,26.30
2022-08-24T22:26:17.318Z,26.20
2022-08-24T22:28:07.952Z,26.20
2022-08-24T22:29:59.801Z,26.10
2022-08-24T22:31:50.954Z,26.10
2022-08-24T22:33:41.731Z,26.10
2022-08-24T22:35:38.097Z,26.10
2022-08-24T22:37:36.162Z,26.10
2022-08-24T22:39:28.117Z,26.10
2022-08-24T22:41:19.510Z,26.10
2022-08-24T22:43:11.417Z,26.10
2022-08-24T22:45:02.104Z,26.10
2022-08-24T22:46:55.615Z,26.00
2022-08-24T22:48:46.176Z,26.00
2022-08-24T22:50:37.502Z,25.90
2022-08-24T22:52:28.123Z,26.00
2022-08-24T22:54:20.899Z,25.90
2022-08-24T22:56:17.130Z,25.90
2022-08-24T22:58:08.490Z,25.70
2022-08-24T22:59:59.242Z,25.70
2022-08-24T23:01:53.209Z,25.70
2022-08-24T23:03:44.140Z,25.80
2022-08-24T23:05:40.587Z,25.80
2022-08-24T23:07:31.525Z,25.80
2022-08-24T23:09:22.598Z,25.80
2022-08-24T23:11:15.539Z,25.80
2022-08-24T23:13:06.353Z,25.80
2022-08-24T23:14:57.591Z,25.80
2022-08-24T23:16:48.898Z,25.80
2022-08-24T23:18:40.353Z,25.80
2022-08-24T23:20:31.346Z,25.70
2022-08-24T23:22:22.335Z,25.70
2022-08-24T23:24:13.429Z,25.70
2022-08-24T23:26:05.564Z,25.70
2022-08-24T23:27:57.556Z,25.70
2022-08-24T23:29:48.675Z,25.70
2022-08-24T23:31:41.213Z,25.60
2022-08-24T23:33:32.745Z,25.50
2022-08-24T23:35:30.699Z,25.50
2022-08-24T23:37:21.548Z,25.50
2022-08-24T23:39:13.553Z,25.40
2022-08-24T23:41:06.612Z,25.50
2022-08-24T23:42:58.828Z,25.50
2022-08-24T23:44:49.896Z,25.50
2022-08-24T23:46:41.337Z,25.50
2022-08-24T23:48:34.450Z,25.50
2022-08-24T23:50:25.345Z,25.50
2022-08-24T23:52:26.727Z,25.50
2022-08-24T23:54:22.695Z,25.50
2022-08-24T23:56:16.747Z,25.50
2022-08-24T23:58:09.363Z,25.50
